sensor_id;sensor_type;location;lat;lon;timestamp;pressure;altitude;pressure_sealevel;temperature;humidity
75745;BME280;64359;51.366;-0.222;2022-12-18T00:00:42;101917.14;;;20.68;41.41
75745;BME280;64359;51.366;-0.222;2022-12-18T00:01:49;101917.75;;;20.67;41.43
75745;BME280;64359;51.366;-0.222;2022-12-18T00:02:55;101915.10;;;20.67;41.37
75745;BME280;64359;51.366;-0.222;2022-12-18T00:03:59;101910.55;;;20.64;41.31
75745;BME280;64359;51.366;-0.222;2022-12-18T00:05:05;101909.23;;;20.64;41.33
75745;BME280;64359;51.366;-0.222;2022-12-18T00:06:10;101905.37;;;20.64;41.43
75745;BME280;64359;51.366;-0.222;2022-12-18T00:07:16;101904.48;;;20.63;41.32
75745;BME280;64359;51.366;-0.222;2022-12-18T00:08:20;101906.34;;;20.63;41.29
75745;BME280;64359;51.366;-0.222;2022-12-18T00:09:25;101903.54;;;20.62;41.28
75745;BME280;64359;51.366;-0.222;2022-12-18T00:10:30;101897.84;;;20.61;41.30
75745;BME280;64359;51.366;-0.222;2022-12-18T00:11:35;101894.79;;;20.61;41.27
75745;BME280;64359;51.366;-0.222;2022-12-18T00:12:39;101890.05;;;20.60;41.30
75745;BME280;64359;51.366;-0.222;2022-12-18T00:13:44;101887.27;;;20.59;41.28
75745;BME280;64359;51.366;-0.222;2022-12-18T00:14:49;101883.87;;;20.59;41.22
75745;BME280;64359;51.366;-0.222;2022-12-18T00:15:53;101886.82;;;20.58;41.93
75745;BME280;64359;51.366;-0.222;2022-12-18T00:16:58;101885.06;;;20.57;42.06
75745;BME280;64359;51.366;-0.222;2022-12-18T00:18:04;101885.20;;;20.58;42.46
75745;BME280;64359;51.366;-0.222;2022-12-18T00:19:11;101879.66;;;20.59;42.79
75745;BME280;64359;51.366;-0.222;2022-12-18T00:20:16;101881.15;;;20.60;43.15
75745;BME280;64359;51.366;-0.222;2022-12-18T00:21:24;101880.86;;;20.62;43.20
75745;BME280;64359;51.366;-0.222;2022-12-18T00:22:29;101878.49;;;20.63;43.30
75745;BME280;64359;51.366;-0.222;2022-12-18T00:23:34;101873.52;;;20.64;43.48
75745;BME280;64359;51.366;-0.222;2022-12-18T00:24:39;101873.13;;;20.66;43.52
75745;BME280;64359;51.366;-0.222;2022-12-18T00:25:43;101872.83;;;20.67;43.66
75745;BME280;64359;51.366;-0.222;2022-12-18T00:26:48;101870.90;;;20.69;43.67
75745;BME280;64359;51.366;-0.222;2022-12-18T00:27:52;101863.33;;;20.70;43.70
75745;BME280;64359;51.366;-0.222;2022-12-18T00:29:00;101860.42;;;20.72;43.65
75745;BME280;64359;51.366;-0.222;2022-12-18T00:30:06;101860.35;;;20.71;43.69
75745;BME280;64359;51.366;-0.222;2022-12-18T00:31:13;101862.97;;;20.73;43.71
75745;BME280;64359;51.366;-0.222;2022-12-18T00:32:18;101863.21;;;20.74;43.72
75745;BME280;64359;51.366;-0.222;2022-12-18T00:33:22;101862.57;;;20.75;43.70
75745;BME280;64359;51.366;-0.222;2022-12-18T00:34:27;101861.73;;;20.77;43.73
75745;BME280;64359;51.366;-0.222;2022-12-18T00:35:32;101868.11;;;20.77;43.68
75745;BME280;64359;51.366;-0.222;2022-12-18T00:36:37;101873.32;;;20.79;43.76
75745;BME280;64359;51.366;-0.222;2022-12-18T00:37:41;101871.46;;;20.80;43.71
75745;BME280;64359;51.366;-0.222;2022-12-18T00:38:46;101869.77;;;20.80;43.74
75745;BME280;64359;51.366;-0.222;2022-12-18T00:39:51;101870.59;;;20.81;43.60
75745;BME280;64359;51.366;-0.222;2022-12-18T00:40:55;101871.60;;;20.82;43.61
75745;BME280;64359;51.366;-0.222;2022-12-18T00:42:00;101865.77;;;20.81;43.61
75745;BME280;64359;51.366;-0.222;2022-12-18T00:43:22;101865.50;;;20.82;43.57
75745;BME280;64359;51.366;-0.222;2022-12-18T00:44:26;101870.27;;;20.85;43.64
75745;BME280;64359;51.366;-0.222;2022-12-18T00:45:32;101871.65;;;20.86;43.49
75745;BME280;64359;51.366;-0.222;2022-12-18T00:46:36;101866.20;;;20.86;43.57
75745;BME280;64359;51.366;-0.222;2022-12-18T00:47:41;101863.16;;;20.88;43.54
75745;BME280;64359;51.366;-0.222;2022-12-18T00:48:45;101865.09;;;20.88;43.51
75745;BME280;64359;51.366;-0.222;2022-12-18T00:49:49;101859.88;;;20.89;43.47
75745;BME280;64359;51.366;-0.222;2022-12-18T00:50:54;101862.90;;;20.90;43.45
75745;BME280;64359;51.366;-0.222;2022-12-18T00:51:59;101858.06;;;20.91;43.46
75745;BME280;64359;51.366;-0.222;2022-12-18T00:53:03;101859.35;;;20.92;43.33
75745;BME280;64359;51.366;-0.222;2022-12-18T00:54:08;101859.77;;;20.94;43.36
75745;BME280;64359;51.366;-0.222;2022-12-18T00:55:13;101862.01;;;20.95;43.36
75745;BME280;64359;51.366;-0.222;2022-12-18T00:56:25;101862.04;;;20.96;43.35
75745;BME280;64359;51.366;-0.222;2022-12-18T00:57:29;101862.83;;;20.97;43.30
75745;BME280;64359;51.366;-0.222;2022-12-18T00:58:41;101862.59;;;20.98;43.32
75745;BME280;64359;51.366;-0.222;2022-12-18T00:59:45;101862.83;;;20.99;43.31
75745;BME280;64359;51.366;-0.222;2022-12-18T01:00:50;101869.10;;;20.99;43.25
75745;BME280;64359;51.366;-0.222;2022-12-18T01:01:54;101867.58;;;21.00;43.26
75745;BME280;64359;51.366;-0.222;2022-12-18T01:02:59;101864.92;;;21.01;43.15
75745;BME280;64359;51.366;-0.222;2022-12-18T01:04:04;101866.64;;;21.02;43.08
75745;BME280;64359;51.366;-0.222;2022-12-18T01:05:09;101866.46;;;21.03;43.06
75745;BME280;64359;51.366;-0.222;2022-12-18T01:06:15;101864.39;;;21.04;42.99
75745;BME280;64359;51.366;-0.222;2022-12-18T01:07:20;101858.38;;;21.05;43.03
75745;BME280;64359;51.366;-0.222;2022-12-18T01:08:24;101855.78;;;21.05;43.03
75745;BME280;64359;51.366;-0.222;2022-12-18T01:09:29;101852.89;;;21.06;42.98
75745;BME280;64359;51.366;-0.222;2022-12-18T01:10:33;101852.39;;;21.07;43.03
75745;BME280;64359;51.366;-0.222;2022-12-18T01:11:38;101847.41;;;21.08;43.02
75745;BME280;64359;51.366;-0.222;2022-12-18T01:12:42;101845.17;;;21.07;42.98
75745;BME280;64359;51.366;-0.222;2022-12-18T01:13:47;101848.70;;;21.09;42.88
75745;BME280;64359;51.366;-0.222;2022-12-18T01:14:51;101848.56;;;21.10;42.93
75745;BME280;64359;51.366;-0.222;2022-12-18T01:15:55;101846.98;;;21.12;42.79
75745;BME280;64359;51.366;-0.222;2022-12-18T01:17:00;101844.23;;;21.12;42.84
75745;BME280;64359;51.366;-0.222;2022-12-18T01:18:09;101842.85;;;21.13;42.79
75745;BME280;64359;51.366;-0.222;2022-12-18T01:19:14;101842.92;;;21.14;42.74
75745;BME280;64359;51.366;-0.222;2022-12-18T01:20:18;101838.03;;;21.12;42.76
75745;BME280;64359;51.366;-0.222;2022-12-18T01:21:23;101838.83;;;21.15;42.73
75745;BME280;64359;51.366;-0.222;2022-12-18T01:22:28;101839.84;;;21.16;42.66
75745;BME280;64359;51.366;-0.222;2022-12-18T01:23:33;101838.48;;;21.17;42.63
75745;BME280;64359;51.366;-0.222;2022-12-18T01:24:37;101833.45;;;21.17;42.61
75745;BME280;64359;51.366;-0.222;2022-12-18T01:25:41;101835.45;;;21.18;42.56
75745;BME280;64359;51.366;-0.222;2022-12-18T01:26:46;101831.04;;;21.19;42.56
75745;BME280;64359;51.366;-0.222;2022-12-18T01:27:50;101830.83;;;21.17;42.54
75745;BME280;64359;51.366;-0.222;2022-12-18T01:28:55;101837.38;;;21.20;42.54
75745;BME280;64359;51.366;-0.222;2022-12-18T01:29:59;101836.36;;;21.22;42.48
75745;BME280;64359;51.366;-0.222;2022-12-18T01:31:18;101836.67;;;21.22;42.55
75745;BME280;64359;51.366;-0.222;2022-12-18T01:32:23;101835.59;;;21.22;42.42
75745;BME280;64359;51.366;-0.222;2022-12-18T01:33:27;101834.34;;;21.22;42.49
75745;BME280;64359;51.366;-0.222;2022-12-18T01:34:32;101834.64;;;21.23;42.38
75745;BME280;64359;51.366;-0.222;2022-12-18T01:35:42;101832.70;;;21.24;42.47
75745;BME280;64359;51.366;-0.222;2022-12-18T01:36:47;101827.27;;;21.24;42.26
75745;BME280;64359;51.366;-0.222;2022-12-18T01:37:55;101826.45;;;21.25;42.32
75745;BME280;64359;51.366;-0.222;2022-12-18T01:39:01;101825.64;;;21.26;42.34
75745;BME280;64359;51.366;-0.222;2022-12-18T01:40:07;101823.26;;;21.26;42.40
75745;BME280;64359;51.366;-0.222;2022-12-18T01:41:12;101825.36;;;21.27;42.29
75745;BME280;64359;51.366;-0.222;2022-12-18T01:42:17;101822.83;;;21.27;42.33
75745;BME280;64359;51.366;-0.222;2022-12-18T01:43:21;101818.55;;;21.28;42.33
75745;BME280;64359;51.366;-0.222;2022-12-18T01:46:10;101813.08;;;21.28;42.23
75745;BME280;64359;51.366;-0.222;2022-12-18T01:47:18;101811.04;;;21.29;42.25
75745;BME280;64359;51.366;-0.222;2022-12-18T01:48:23;101809.23;;;21.28;42.23
75745;BME280;64359;51.366;-0.222;2022-12-18T01:49:28;101810.33;;;21.29;42.24
75745;BME280;64359;51.366;-0.222;2022-12-18T01:50:35;101804.30;;;21.29;42.29
75745;BME280;64359;51.366;-0.222;2022-12-18T01:51:40;101804.64;;;21.29;42.23
75745;BME280;64359;51.366;-0.222;2022-12-18T01:52:46;101801.36;;;21.29;42.21
75745;BME280;64359;51.366;-0.222;2022-12-18T01:53:51;101798.92;;;21.29;42.27
75745;BME280;64359;51.366;-0.222;2022-12-18T01:54:56;101796.98;;;21.30;42.24
75745;BME280;64359;51.366;-0.222;2022-12-18T01:56:01;101799.11;;;21.31;42.33
75745;BME280;64359;51.366;-0.222;2022-12-18T01:57:05;101798.94;;;21.30;42.36
75745;BME280;64359;51.366;-0.222;2022-12-18T01:58:10;101799.83;;;21.31;42.33
75745;BME280;64359;51.366;-0.222;2022-12-18T01:59:14;101799.73;;;21.30;42.30
75745;BME280;64359;51.366;-0.222;2022-12-18T02:00:21;101797.89;;;21.30;42.29
75745;BME280;64359;51.366;-0.222;2022-12-18T02:01:26;101803.88;;;21.30;42.08
75745;BME280;64359;51.366;-0.222;2022-12-18T02:02:32;101800.02;;;21.30;42.22
75745;BME280;64359;51.366;-0.222;2022-12-18T02:03:36;101799.27;;;21.31;42.22
75745;BME280;64359;51.366;-0.222;2022-12-18T02:04:41;101801.66;;;21.30;42.16
75745;BME280;64359;51.366;-0.222;2022-12-18T02:05:49;101804.77;;;21.31;42.22
75745;BME280;64359;51.366;-0.222;2022-12-18T02:07:04;101802.46;;;21.31;42.20
75745;BME280;64359;51.366;-0.222;2022-12-18T02:08:19;101803.42;;;21.31;42.22
75745;BME280;64359;51.366;-0.222;2022-12-18T02:09:27;101805.95;;;21.31;42.20
75745;BME280;64359;51.366;-0.222;2022-12-18T02:10:41;101809.38;;;21.31;42.28
75745;BME280;64359;51.366;-0.222;2022-12-18T02:11:53;101813.27;;;21.32;42.13
75745;BME280;64359;51.366;-0.222;2022-12-18T02:13:06;101815.08;;;21.32;42.13
75745;BME280;64359;51.366;-0.222;2022-12-18T02:14:21;101820.19;;;21.31;42.07
75745;BME280;64359;51.366;-0.222;2022-12-18T02:15:33;101828.45;;;21.32;42.01
75745;BME280;64359;51.366;-0.222;2022-12-18T02:16:46;101821.94;;;21.30;42.04
75745;BME280;64359;51.366;-0.222;2022-12-18T02:17:57;101825.03;;;21.31;41.93
75745;BME280;64359;51.366;-0.222;2022-12-18T02:19:08;101827.00;;;21.32;42.04
75745;BME280;64359;51.366;-0.222;2022-12-18T02:20:20;101829.50;;;21.32;42.00
75745;BME280;64359;51.366;-0.222;2022-12-18T02:21:33;101835.60;;;21.32;41.96
75745;BME280;64359;51.366;-0.222;2022-12-18T02:22:48;101833.34;;;21.33;41.89
75745;BME280;64359;51.366;-0.222;2022-12-18T02:24:00;101829.16;;;21.31;41.89
75745;BME280;64359;51.366;-0.222;2022-12-18T02:25:16;101831.23;;;21.34;41.77
75745;BME280;64359;51.366;-0.222;2022-12-18T02:26:28;101830.86;;;21.34;41.71
75745;BME280;64359;51.366;-0.222;2022-12-18T02:27:33;101831.13;;;21.35;41.80
75745;BME280;64359;51.366;-0.222;2022-12-18T02:28:42;101828.89;;;21.34;41.72
75745;BME280;64359;51.366;-0.222;2022-12-18T02:29:50;101824.77;;;21.34;41.69
75745;BME280;64359;51.366;-0.222;2022-12-18T02:30:57;101824.65;;;21.32;41.72
75745;BME280;64359;51.366;-0.222;2022-12-18T02:32:06;101825.17;;;21.33;41.74
75745;BME280;64359;51.366;-0.222;2022-12-18T02:33:13;101826.92;;;21.34;41.71
75745;BME280;64359;51.366;-0.222;2022-12-18T02:34:19;101825.98;;;21.34;41.72
75745;BME280;64359;51.366;-0.222;2022-12-18T02:35:29;101824.35;;;21.34;41.48
75745;BME280;64359;51.366;-0.222;2022-12-18T02:36:34;101826.33;;;21.34;41.70
75745;BME280;64359;51.366;-0.222;2022-12-18T02:37:40;101827.58;;;21.34;41.67
75745;BME280;64359;51.366;-0.222;2022-12-18T02:38:47;101831.27;;;21.35;41.58
75745;BME280;64359;51.366;-0.222;2022-12-18T02:39:53;101833.44;;;21.35;41.54
75745;BME280;64359;51.366;-0.222;2022-12-18T02:41:00;101833.77;;;21.35;41.63
75745;BME280;64359;51.366;-0.222;2022-12-18T02:42:06;101839.53;;;21.36;41.54
75745;BME280;64359;51.366;-0.222;2022-12-18T02:43:13;101838.80;;;21.36;41.49
75745;BME280;64359;51.366;-0.222;2022-12-18T02:44:18;101838.18;;;21.37;41.48
75745;BME280;64359;51.366;-0.222;2022-12-18T02:45:23;101838.52;;;21.37;41.51
75745;BME280;64359;51.366;-0.222;2022-12-18T02:46:33;101837.77;;;21.37;41.49
75745;BME280;64359;51.366;-0.222;2022-12-18T02:47:41;101839.40;;;21.37;41.45
75745;BME280;64359;51.366;-0.222;2022-12-18T02:48:46;101836.28;;;21.37;41.42
75745;BME280;64359;51.366;-0.222;2022-12-18T02:49:55;101840.28;;;21.37;41.42
75745;BME280;64359;51.366;-0.222;2022-12-18T02:51:08;101835.06;;;21.37;41.44
75745;BME280;64359;51.366;-0.222;2022-12-18T02:52:28;101837.37;;;21.37;41.47
75745;BME280;64359;51.366;-0.222;2022-12-18T02:53:39;101842.70;;;21.37;41.39
75745;BME280;64359;51.366;-0.222;2022-12-18T02:55:00;101841.95;;;21.37;41.41
75745;BME280;64359;51.366;-0.222;2022-12-18T02:56:13;101839.67;;;21.36;41.47
75745;BME280;64359;51.366;-0.222;2022-12-18T02:57:27;101842.45;;;21.36;41.46
75745;BME280;64359;51.366;-0.222;2022-12-18T02:58:44;101840.11;;;21.35;41.48
75745;BME280;64359;51.366;-0.222;2022-12-18T02:59:58;101842.35;;;21.35;41.41
75745;BME280;64359;51.366;-0.222;2022-12-18T03:01:12;101845.44;;;21.35;41.45
75745;BME280;64359;51.366;-0.222;2022-12-18T03:02:23;101843.95;;;21.35;41.40
75745;BME280;64359;51.366;-0.222;2022-12-18T03:03:31;101838.90;;;21.35;41.48
75745;BME280;64359;51.366;-0.222;2022-12-18T03:04:42;101839.61;;;21.35;41.29
75745;BME280;64359;51.366;-0.222;2022-12-18T03:05:52;101838.48;;;21.36;41.40
75745;BME280;64359;51.366;-0.222;2022-12-18T03:07:00;101832.66;;;21.36;41.47
75745;BME280;64359;51.366;-0.222;2022-12-18T03:08:06;101827.88;;;21.35;41.35
75745;BME280;64359;51.366;-0.222;2022-12-18T03:09:14;101823.04;;;21.35;41.38
75745;BME280;64359;51.366;-0.222;2022-12-18T03:10:21;101820.33;;;21.35;41.43
75745;BME280;64359;51.366;-0.222;2022-12-18T03:11:30;101820.09;;;21.34;41.43
75745;BME280;64359;51.366;-0.222;2022-12-18T03:12:58;101814.56;;;21.33;41.26
75745;BME280;64359;51.366;-0.222;2022-12-18T03:14:05;101811.30;;;21.33;41.47
75745;BME280;64359;51.366;-0.222;2022-12-18T03:15:14;101806.80;;;21.31;41.44
75745;BME280;64359;51.366;-0.222;2022-12-18T03:16:26;101811.31;;;21.33;41.45
75745;BME280;64359;51.366;-0.222;2022-12-18T03:17:33;101807.75;;;21.32;41.45
75745;BME280;64359;51.366;-0.222;2022-12-18T03:18:42;101811.08;;;21.33;41.39
75745;BME280;64359;51.366;-0.222;2022-12-18T03:19:49;101809.08;;;21.34;41.36
75745;BME280;64359;51.366;-0.222;2022-12-18T03:21:00;101804.88;;;21.34;41.35
75745;BME280;64359;51.366;-0.222;2022-12-18T03:22:08;101804.84;;;21.34;41.41
75745;BME280;64359;51.366;-0.222;2022-12-18T03:23:15;101798.67;;;21.35;41.29
75745;BME280;64359;51.366;-0.222;2022-12-18T03:24:22;101790.88;;;21.35;41.30
75745;BME280;64359;51.366;-0.222;2022-12-18T03:25:29;101783.96;;;21.35;41.37
75745;BME280;64359;51.366;-0.222;2022-12-18T03:26:36;101786.52;;;21.35;41.31
75745;BME280;64359;51.366;-0.222;2022-12-18T03:27:49;101786.65;;;21.35;41.34
75745;BME280;64359;51.366;-0.222;2022-12-18T03:28:57;101786.59;;;21.34;41.36
75745;BME280;64359;51.366;-0.222;2022-12-18T03:30:06;101787.09;;;21.35;41.32
75745;BME280;64359;51.366;-0.222;2022-12-18T03:31:12;101791.66;;;21.34;41.29
75745;BME280;64359;51.366;-0.222;2022-12-18T03:32:23;101786.75;;;21.34;41.28
75745;BME280;64359;51.366;-0.222;2022-12-18T03:33:31;101788.89;;;21.35;41.26
75745;BME280;64359;51.366;-0.222;2022-12-18T03:34:41;101786.10;;;21.35;41.22
75745;BME280;64359;51.366;-0.222;2022-12-18T03:35:46;101787.08;;;21.35;41.23
75745;BME280;64359;51.366;-0.222;2022-12-18T03:36:51;101779.48;;;21.33;41.33
75745;BME280;64359;51.366;-0.222;2022-12-18T03:37:55;101782.35;;;21.35;41.27
75745;BME280;64359;51.366;-0.222;2022-12-18T03:39:03;101779.83;;;21.35;41.27
75745;BME280;64359;51.366;-0.222;2022-12-18T03:40:10;101784.00;;;21.35;41.27
75745;BME280;64359;51.366;-0.222;2022-12-18T03:41:20;101781.46;;;21.35;41.19
75745;BME280;64359;51.366;-0.222;2022-12-18T03:42:31;101785.22;;;21.35;41.19
75745;BME280;64359;51.366;-0.222;2022-12-18T03:43:38;101787.80;;;21.35;41.25
75745;BME280;64359;51.366;-0.222;2022-12-18T03:44:51;101788.52;;;21.33;41.25
75745;BME280;64359;51.366;-0.222;2022-12-18T03:46:05;101786.27;;;21.32;41.25
75745;BME280;64359;51.366;-0.222;2022-12-18T03:47:15;101783.80;;;21.32;41.24
75745;BME280;64359;51.366;-0.222;2022-12-18T03:48:26;101782.64;;;21.31;41.14
75745;BME280;64359;51.366;-0.222;2022-12-18T03:49:38;101786.65;;;21.31;41.16
75745;BME280;64359;51.366;-0.222;2022-12-18T03:50:48;101786.98;;;21.31;41.20
75745;BME280;64359;51.366;-0.222;2022-12-18T03:51:58;101783.56;;;21.31;41.12
75745;BME280;64359;51.366;-0.222;2022-12-18T03:53:22;101781.77;;;21.30;41.21
75745;BME280;64359;51.366;-0.222;2022-12-18T03:54:30;101780.36;;;21.30;41.13
75745;BME280;64359;51.366;-0.222;2022-12-18T03:55:36;101777.30;;;21.30;41.17
75745;BME280;64359;51.366;-0.222;2022-12-18T03:56:44;101772.85;;;21.29;41.17
75745;BME280;64359;51.366;-0.222;2022-12-18T03:57:51;101766.58;;;21.29;41.16
75745;BME280;64359;51.366;-0.222;2022-12-18T03:58:57;101762.97;;;21.31;41.06
75745;BME280;64359;51.366;-0.222;2022-12-18T04:00:06;101756.14;;;21.30;41.07
75745;BME280;64359;51.366;-0.222;2022-12-18T04:01:14;101754.55;;;21.30;41.10
75745;BME280;64359;51.366;-0.222;2022-12-18T04:02:22;101755.46;;;21.30;41.12
75745;BME280;64359;51.366;-0.222;2022-12-18T04:03:29;101758.29;;;21.30;41.05
75745;BME280;64359;51.366;-0.222;2022-12-18T04:04:35;101759.59;;;21.30;41.13
75745;BME280;64359;51.366;-0.222;2022-12-18T04:05:40;101760.36;;;21.29;41.08
75745;BME280;64359;51.366;-0.222;2022-12-18T04:06:47;101766.83;;;21.30;41.15
75745;BME280;64359;51.366;-0.222;2022-12-18T04:07:52;101767.36;;;21.30;41.05
75745;BME280;64359;51.366;-0.222;2022-12-18T04:08:57;101766.84;;;21.30;41.09
75745;BME280;64359;51.366;-0.222;2022-12-18T04:10:03;101766.48;;;21.30;41.14
75745;BME280;64359;51.366;-0.222;2022-12-18T04:11:07;101763.77;;;21.30;41.14
75745;BME280;64359;51.366;-0.222;2022-12-18T04:12:12;101763.57;;;21.30;41.09
75745;BME280;64359;51.366;-0.222;2022-12-18T04:13:24;101760.11;;;21.30;41.10
75745;BME280;64359;51.366;-0.222;2022-12-18T04:14:28;101753.33;;;21.29;41.10
75745;BME280;64359;51.366;-0.222;2022-12-18T04:15:34;101749.92;;;21.27;41.12
75745;BME280;64359;51.366;-0.222;2022-12-18T04:16:39;101750.09;;;21.29;41.09
75745;BME280;64359;51.366;-0.222;2022-12-18T04:17:48;101749.07;;;21.29;41.14
75745;BME280;64359;51.366;-0.222;2022-12-18T04:18:53;101752.50;;;21.29;41.17
75745;BME280;64359;51.366;-0.222;2022-12-18T04:19:58;101749.62;;;21.28;41.12
75745;BME280;64359;51.366;-0.222;2022-12-18T04:21:02;101741.41;;;21.27;41.12
75745;BME280;64359;51.366;-0.222;2022-12-18T04:22:08;101743.21;;;21.28;41.11
75745;BME280;64359;51.366;-0.222;2022-12-18T04:23:13;101744.46;;;21.28;41.09
75745;BME280;64359;51.366;-0.222;2022-12-18T04:24:17;101747.52;;;21.28;41.12
75745;BME280;64359;51.366;-0.222;2022-12-18T04:25:22;101747.52;;;21.28;41.15
75745;BME280;64359;51.366;-0.222;2022-12-18T04:26:26;101748.43;;;21.28;41.17
75745;BME280;64359;51.366;-0.222;2022-12-18T04:27:30;101751.31;;;21.28;41.09
75745;BME280;64359;51.366;-0.222;2022-12-18T04:28:35;101753.48;;;21.28;41.10
75745;BME280;64359;51.366;-0.222;2022-12-18T04:29:39;101754.63;;;21.27;41.16
75745;BME280;64359;51.366;-0.222;2022-12-18T04:30:43;101757.55;;;21.27;41.13
75745;BME280;64359;51.366;-0.222;2022-12-18T04:31:48;101761.16;;;21.27;41.09
75745;BME280;64359;51.366;-0.222;2022-12-18T04:32:52;101760.86;;;21.27;41.08
75745;BME280;64359;51.366;-0.222;2022-12-18T04:33:57;101751.65;;;21.26;41.16
75745;BME280;64359;51.366;-0.222;2022-12-18T04:35:01;101748.09;;;21.26;41.15
75745;BME280;64359;51.366;-0.222;2022-12-18T04:36:08;101751.11;;;21.27;41.19
75745;BME280;64359;51.366;-0.222;2022-12-18T04:37:12;101752.02;;;21.26;41.15
75745;BME280;64359;51.366;-0.222;2022-12-18T04:38:16;101753.48;;;21.26;41.17
75745;BME280;64359;51.366;-0.222;2022-12-18T04:39:21;101755.65;;;21.26;41.13
75745;BME280;64359;51.366;-0.222;2022-12-18T04:40:25;101756.89;;;21.26;41.11
75745;BME280;64359;51.366;-0.222;2022-12-18T04:41:30;101752.73;;;21.27;41.12
75745;BME280;64359;51.366;-0.222;2022-12-18T04:42:34;101753.58;;;21.27;41.03
75745;BME280;64359;51.366;-0.222;2022-12-18T04:43:38;101753.45;;;21.27;41.12
75745;BME280;64359;51.366;-0.222;2022-12-18T04:44:43;101753.08;;;21.27;41.04
75745;BME280;64359;51.366;-0.222;2022-12-18T04:45:47;101749.16;;;21.25;41.11
75745;BME280;64359;51.366;-0.222;2022-12-18T04:46:51;101750.27;;;21.26;41.10
75745;BME280;64359;51.366;-0.222;2022-12-18T04:47:58;101748.56;;;21.27;41.11
75745;BME280;64359;51.366;-0.222;2022-12-18T04:49:02;101740.61;;;21.27;41.14
75745;BME280;64359;51.366;-0.222;2022-12-18T04:50:08;101737.69;;;21.27;41.03
75745;BME280;64359;51.366;-0.222;2022-12-18T04:51:12;101732.64;;;21.27;41.02
75745;BME280;64359;51.366;-0.222;2022-12-18T04:52:16;101730.95;;;21.27;41.11
75745;BME280;64359;51.366;-0.222;2022-12-18T04:53:21;101726.67;;;21.27;41.10
75745;BME280;64359;51.366;-0.222;2022-12-18T04:54:25;101727.42;;;21.27;41.08
75745;BME280;64359;51.366;-0.222;2022-12-18T04:55:30;101722.85;;;21.27;41.04
75745;BME280;64359;51.366;-0.222;2022-12-18T04:56:34;101718.76;;;21.26;41.04
75745;BME280;64359;51.366;-0.222;2022-12-18T04:57:39;101717.46;;;21.27;41.06
75745;BME280;64359;51.366;-0.222;2022-12-18T04:58:44;101713.02;;;21.26;41.06
75745;BME280;64359;51.366;-0.222;2022-12-18T04:59:49;101710.38;;;21.24;41.04
75745;BME280;64359;51.366;-0.222;2022-12-18T05:00:53;101705.47;;;21.24;41.11
75745;BME280;64359;51.366;-0.222;2022-12-18T05:01:57;101710.92;;;21.26;41.04
75745;BME280;64359;51.366;-0.222;2022-12-18T05:03:03;101707.27;;;21.24;41.12
75745;BME280;64359;51.366;-0.222;2022-12-18T05:04:07;101705.34;;;21.25;40.95
75745;BME280;64359;51.366;-0.222;2022-12-18T05:05:12;101702.83;;;21.25;41.09
75745;BME280;64359;51.366;-0.222;2022-12-18T05:06:16;101701.00;;;21.25;41.08
75745;BME280;64359;51.366;-0.222;2022-12-18T05:07:20;101700.56;;;21.26;41.09
75745;BME280;64359;51.366;-0.222;2022-12-18T05:08:25;101701.14;;;21.26;41.06
75745;BME280;64359;51.366;-0.222;2022-12-18T05:09:29;101695.41;;;21.24;40.99
75745;BME280;64359;51.366;-0.222;2022-12-18T05:10:34;101694.53;;;21.25;41.01
75745;BME280;64359;51.366;-0.222;2022-12-18T05:11:38;101695.58;;;21.25;40.99
75745;BME280;64359;51.366;-0.222;2022-12-18T05:12:42;101690.56;;;21.25;40.96
75745;BME280;64359;51.366;-0.222;2022-12-18T05:14:30;101684.48;;;21.28;40.97
75745;BME280;64359;51.366;-0.222;2022-12-18T05:15:34;101680.51;;;21.26;40.96
75745;BME280;64359;51.366;-0.222;2022-12-18T05:16:39;101674.98;;;21.22;40.92
75745;BME280;64359;51.366;-0.222;2022-12-18T05:17:43;101674.08;;;21.22;40.88
75745;BME280;64359;51.366;-0.222;2022-12-18T05:18:48;101675.56;;;21.25;40.83
75745;BME280;64359;51.366;-0.222;2022-12-18T05:19:52;101673.33;;;21.26;40.87
75745;BME280;64359;51.366;-0.222;2022-12-18T05:20:57;101672.92;;;21.26;40.95
75745;BME280;64359;51.366;-0.222;2022-12-18T05:22:01;101663.32;;;21.21;40.88
75745;BME280;64359;51.366;-0.222;2022-12-18T05:23:06;101670.44;;;21.25;41.00
75745;BME280;64359;51.366;-0.222;2022-12-18T05:24:10;101671.36;;;21.26;40.93
75745;BME280;64359;51.366;-0.222;2022-12-18T05:25:15;101665.29;;;21.23;40.92
75745;BME280;64359;51.366;-0.222;2022-12-18T05:26:19;101671.98;;;21.25;40.94
75745;BME280;64359;51.366;-0.222;2022-12-18T05:27:24;101668.05;;;21.24;40.91
75745;BME280;64359;51.366;-0.222;2022-12-18T05:28:30;101661.47;;;21.25;40.92
75745;BME280;64359;51.366;-0.222;2022-12-18T05:29:34;101656.56;;;21.25;40.92
75745;BME280;64359;51.366;-0.222;2022-12-18T05:30:39;101648.12;;;21.23;40.91
75745;BME280;64359;51.366;-0.222;2022-12-18T05:31:43;101649.71;;;21.25;40.94
75745;BME280;64359;51.366;-0.222;2022-12-18T05:32:48;101649.11;;;21.26;40.96
75745;BME280;64359;51.366;-0.222;2022-12-18T05:33:52;101648.25;;;21.25;40.96
75745;BME280;64359;51.366;-0.222;2022-12-18T05:34:56;101648.60;;;21.26;40.98
75745;BME280;64359;51.366;-0.222;2022-12-18T05:36:02;101647.31;;;21.26;41.02
75745;BME280;64359;51.366;-0.222;2022-12-18T05:37:07;101649.14;;;21.26;40.92
75745;BME280;64359;51.366;-0.222;2022-12-18T05:38:11;101648.15;;;21.26;40.95
75745;BME280;64359;51.366;-0.222;2022-12-18T05:39:15;101643.68;;;21.26;41.03
75745;BME280;64359;51.366;-0.222;2022-12-18T05:40:20;101639.52;;;21.26;40.92
75745;BME280;64359;51.366;-0.222;2022-12-18T05:41:24;101637.52;;;21.26;40.98
75745;BME280;64359;51.366;-0.222;2022-12-18T05:42:29;101635.19;;;21.26;40.85
75745;BME280;64359;51.366;-0.222;2022-12-18T05:43:35;101635.56;;;21.26;40.97
75745;BME280;64359;51.366;-0.222;2022-12-18T05:44:40;101630.44;;;21.26;40.92
75745;BME280;64359;51.366;-0.222;2022-12-18T05:45:44;101634.07;;;21.26;41.00
75745;BME280;64359;51.366;-0.222;2022-12-18T05:46:49;101636.44;;;21.26;40.94